Time;durP1;ratioP1;P1;durP2;ratioP2;P2;SDS_P1;SDS_P2;PMS_P1;PMS_P2;Temp;Humidity;BMP_temperature;BMP_pressure;BME280_temperature;BME280_humidity;BME280_pressure;Samples;Min_cycle;Max_cycle;Signal;HPM_P1;HPM_P2
2023/03/12 00:01:46;;;;;;;9.15;5.30;;;3.90;99.90;;;;;;4998976;28;20030;-75
2023/03/12 00:04:11;;;;;;;15.05;5.97;;;3.90;99.90;;;;;;5004759;28;20062;-75
2023/03/12 00:06:37;;;;;;;8.90;5.57;;;3.90;99.90;;;;;;4994268;28;20022;-75
2023/03/12 00:09:03;;;;;;;12.18;6.00;;;4.00;99.90;;;;;;5004754;28;20022;-75
2023/03/12 00:11:29;;;;;;;12.88;5.85;;;4.00;99.90;;;;;;5007833;28;20042;-75
2023/03/12 00:13:57;;;;;;;14.02;6.18;;;4.00;99.90;;;;;;5012316;28;20062;-75
2023/03/12 00:16:23;;;;;;;12.30;6.22;;;3.90;99.90;;;;;;4990488;28;20551;-75
2023/03/12 00:18:51;;;;;;;12.05;6.22;;;3.90;99.90;;;;;;5011442;28;20034;-74
2023/03/12 00:21:17;;;;;;;11.98;5.93;;;4.00;99.90;;;;;;5012798;28;20543;-75
2023/03/12 00:23:43;;;;;;;11.77;6.05;;;3.90;99.90;;;;;;5001003;28;20026;-75
2023/03/12 00:26:11;;;;;;;14.30;6.20;;;4.00;99.90;;;;;;5013440;28;20041;-75
2023/03/12 00:28:37;;;;;;;12.65;5.97;;;4.00;99.90;;;;;;5000006;28;20022;-74
2023/03/12 00:31:21;;;;;;;11.88;6.07;;;4.00;99.90;;;;;;5000684;28;20022;-74
2023/03/12 00:33:50;;;;;;;16.58;6.20;;;4.00;99.90;;;;;;4997667;28;20036;-75
2023/03/12 00:36:17;;;;;;;11.13;6.43;;;4.00;99.90;;;;;;5007556;28;20521;-75
2023/03/12 00:38:43;;;;;;;15.88;5.80;;;4.00;99.90;;;;;;5006407;28;20424;-75
2023/03/12 00:41:09;;;;;;;11.98;6.22;;;3.90;99.90;;;;;;5002511;28;20091;-75
2023/03/12 00:43:34;;;;;;;10.38;6.07;;;3.90;99.90;;;;;;5016798;28;20022;-75
2023/03/12 00:46:00;;;;;;;12.13;5.57;;;4.00;99.90;;;;;;5016244;28;20018;-75
2023/03/12 00:48:26;;;;;;;13.23;5.65;;;4.00;99.90;;;;;;5015868;28;20125;-75
2023/03/12 00:50:51;;;;;;;11.18;5.43;;;4.00;99.90;;;;;;5015235;28;20052;-75
2023/03/12 00:53:17;;;;;;;11.05;5.68;;;4.00;99.90;;;;;;5016520;28;20474;-75
2023/03/12 00:55:43;;;;;;;9.60;4.88;;;4.00;99.90;;;;;;5016315;28;20022;-75
2023/03/12 00:58:08;;;;;;;9.75;4.88;;;4.00;99.90;;;;;;5014526;28;20092;-75
2023/03/12 01:00:34;;;;;;;16.05;5.07;;;4.10;99.90;;;;;;5016297;28;20030;-75
2023/03/12 01:02:59;;;;;;;12.00;4.82;;;4.10;99.90;;;;;;5016587;28;20034;-74
2023/03/12 01:05:26;;;;;;;9.52;4.80;;;4.10;99.90;;;;;;5002607;28;20022;-75
2023/03/12 01:07:51;;;;;;;11.70;4.60;;;4.10;99.90;;;;;;5015836;28;20576;-75
2023/03/12 01:10:19;;;;;;;8.85;4.45;;;4.10;99.90;;;;;;5015213;28;20046;-74
2023/03/12 01:12:45;;;;;;;16.10;4.80;;;4.10;99.90;;;;;;5016123;28;20018;-74
2023/03/12 01:15:16;;;;;;;9.82;4.57;;;4.10;99.90;;;;;;5016154;28;20014;-75
2023/03/12 01:17:42;;;;;;;8.82;4.25;;;4.10;99.90;;;;;;5016021;28;20453;-74
2023/03/12 01:20:09;;;;;;;10.23;4.38;;;4.20;99.90;;;;;;5015957;28;20061;-75
2023/03/12 01:22:35;;;;;;;7.50;4.30;;;4.20;99.90;;;;;;5009825;28;20589;-75
2023/03/12 01:25:01;;;;;;;8.77;4.43;;;4.20;99.90;;;;;;5008591;28;20022;-75
2023/03/12 01:27:26;;;;;;;7.40;4.32;;;4.30;99.90;;;;;;5012842;28;19999;-75
2023/03/12 01:29:52;;;;;;;11.85;4.20;;;4.30;99.90;;;;;;5006817;28;20033;-74
2023/03/12 01:32:18;;;;;;;5.60;3.72;;;4.30;99.90;;;;;;5016451;28;20029;-75
2023/03/12 01:34:44;;;;;;;11.25;4.43;;;4.30;99.90;;;;;;5015363;28;20037;-75
2023/03/12 01:37:10;;;;;;;9.98;4.38;;;4.30;99.90;;;;;;5016275;28;20026;-75
2023/03/12 01:39:35;;;;;;;11.70;4.13;;;4.30;99.90;;;;;;5001147;28;20033;-74
2023/03/12 01:42:01;;;;;;;12.15;4.95;;;4.30;99.90;;;;;;5004287;28;20054;-75
2023/03/12 01:44:28;;;;;;;9.70;4.25;;;4.30;99.90;;;;;;4996634;28;20347;-75
2023/03/12 01:46:53;;;;;;;9.35;4.28;;;4.30;99.90;;;;;;5005935;28;20030;-75
2023/03/12 01:49:22;;;;;;;9.07;4.68;;;4.30;99.90;;;;;;4999754;28;20061;-75
2023/03/12 01:52:16;;;;;;;12.68;4.60;;;4.30;99.90;;;;;;4982792;28;20022;-75
2023/03/12 01:54:49;;;;;;;12.45;5.15;;;4.30;99.90;;;;;;4999007;28;20458;-75
2023/03/12 01:57:19;;;;;;;14.40;5.45;;;4.30;99.90;;;;;;5016507;28;20026;-75
2023/03/12 01:59:50;;;;;;;12.98;5.32;;;4.30;99.90;;;;;;5015706;28;20100;-75
2023/03/12 02:02:17;;;;;;;10.95;4.72;;;4.30;99.90;;;;;;5015649;28;20037;-75
2023/03/12 02:04:44;;;;;;;11.43;5.07;;;4.30;99.90;;;;;;5003198;28;20026;-75
2023/03/12 02:07:13;;;;;;;13.05;5.15;;;4.30;99.90;;;;;;5009590;28;20500;-75
2023/03/12 02:09:45;;;;;;;11.45;4.88;;;4.30;99.90;;;;;;5007632;28;20026;-75
2023/03/12 02:12:11;;;;;;;11.38;5.13;;;4.30;99.90;;;;;;4996181;28;20053;-75
2023/03/12 02:14:37;;;;;;;7.95;4.53;;;4.30;99.90;;;;;;5005311;28;20076;-75
2023/03/12 02:17:04;;;;;;;12.20;4.97;;;4.40;99.90;;;;;;5014199;28;20109;-75
2023/03/12 02:20:11;;;;;;;10.18;4.68;;;4.30;99.90;;;;;;5016411;28;20494;-75
2023/03/12 02:22:41;;;;;;;8.70;4.03;;;4.40;99.90;;;;;;4966291;28;20103;-75
2023/03/12 02:25:37;;;;;;;11.85;4.45;;;4.30;99.90;;;;;;5000093;28;20339;-75
2023/03/12 02:28:06;;;;;;;11.57;4.70;;;4.40;99.90;;;;;;4994918;28;20046;-75
2023/03/12 02:30:33;;;;;;;9.60;4.53;;;4.40;99.90;;;;;;5010323;28;20018;-75
2023/03/12 02:33:05;;;;;;;12.52;4.38;;;4.40;99.90;;;;;;5012480;28;20501;-75
2023/03/12 02:35:31;;;;;;;10.43;4.40;;;4.40;99.90;;;;;;5014355;28;20370;-75
2023/03/12 02:37:56;;;;;;;14.63;4.78;;;4.40;99.90;;;;;;4992557;28;20049;-75
2023/03/12 02:40:28;;;;;;;13.70;5.32;;;4.40;99.90;;;;;;5008829;28;20026;-75
2023/03/12 02:42:55;;;;;;;14.80;4.85;;;4.40;99.90;;;;;;5013999;28;20493;-75
2023/03/12 02:45:21;;;;;;;11.82;4.78;;;4.40;99.90;;;;;;5013864;28;20548;-75
2023/03/12 02:47:46;;;;;;;9.98;4.50;;;4.40;99.90;;;;;;5013668;28;20373;-75
2023/03/12 02:50:12;;;;;;;8.88;4.68;;;4.30;99.90;;;;;;5005934;28;20030;-75
2023/03/12 02:52:39;;;;;;;13.60;4.85;;;4.40;99.90;;;;;;4986125;28;20134;-74
2023/03/12 02:55:05;;;;;;;10.85;4.30;;;4.30;99.90;;;;;;5004270;28;20081;-75
2023/03/12 02:57:31;;;;;;;10.75;4.72;;;4.30;99.90;;;;;;5008656;28;20022;-75
2023/03/12 02:59:56;;;;;;;10.02;4.95;;;4.30;99.90;;;;;;5000165;28;20046;-75
2023/03/12 03:02:23;;;;;;;12.95;4.90;;;4.30;99.90;;;;;;5013037;28;20092;-75
2023/03/12 03:04:48;;;;;;;11.15;4.90;;;4.30;99.90;;;;;;5014146;28;20030;-75
2023/03/12 03:07:14;;;;;;;13.60;5.03;;;4.30;99.90;;;;;;5013887;28;20440;-75
2023/03/12 03:09:40;;;;;;;9.43;4.65;;;4.20;99.90;;;;;;5014199;28;20056;-75
2023/03/12 03:12:05;;;;;;;13.77;5.10;;;4.20;99.90;;;;;;4992794;28;20019;-75
2023/03/12 03:14:31;;;;;;;11.52;4.68;;;4.20;99.90;;;;;;5003649;28;20046;-75
2023/03/12 03:16:57;;;;;;;10.75;4.70;;;4.20;99.90;;;;;;4994290;28;20026;-75
2023/03/12 03:19:23;;;;;;;11.75;4.93;;;4.20;99.90;;;;;;5012947;28;20030;-75
2023/03/12 03:21:49;;;;;;;9.20;4.05;;;4.20;99.90;;;;;;5013284;28;20092;-75
2023/03/12 03:24:15;;;;;;;10.38;4.78;;;4.20;99.90;;;;;;5013280;28;20030;-75
2023/03/12 03:26:41;;;;;;;12.80;4.80;;;4.20;99.90;;;;;;5002243;28;20023;-75
2023/03/12 03:29:07;;;;;;;7.95;4.53;;;4.20;99.90;;;;;;5007504;28;20440;-75
2023/03/12 03:31:33;;;;;;;12.43;4.57;;;4.20;99.90;;;;;;5002655;28;20335;-75
2023/03/12 03:33:58;;;;;;;13.95;4.38;;;4.20;99.90;;;;;;4999769;28;20042;-75
2023/03/12 03:36:24;;;;;;;12.13;4.63;;;4.20;99.90;;;;;;5013369;28;20029;-75
2023/03/12 03:38:50;;;;;;;10.00;4.35;;;4.10;99.90;;;;;;5013248;28;20053;-75
2023/03/12 03:41:19;;;;;;;9.43;4.80;;;4.10;99.90;;;;;;4998991;28;20026;-75
2023/03/12 03:43:45;;;;;;;9.32;4.43;;;4.10;99.90;;;;;;5001258;28;20026;-75
2023/03/12 03:46:12;;;;;;;13.50;4.80;;;4.10;99.90;;;;;;5010430;28;20029;-75
2023/03/12 03:48:39;;;;;;;9.23;4.43;;;4.20;99.90;;;;;;5003935;28;20367;-75
2023/03/12 03:51:06;;;;;;;12.32;5.07;;;4.20;99.90;;;;;;4997922;28;20025;-75
2023/03/12 03:53:33;;;;;;;12.48;4.95;;;4.20;99.90;;;;;;5013295;28;20527;-75
2023/03/12 03:56:05;;;;;;;12.18;5.03;;;4.20;99.90;;;;;;5012717;28;20040;-75
2023/03/12 03:58:30;;;;;;;10.00;4.78;;;4.20;99.90;;;;;;5013501;28;20045;-75
2023/03/12 04:00:56;;;;;;;14.68;5.60;;;4.20;99.90;;;;;;5013032;28;20060;-74
2023/03/12 04:03:21;;;;;;;12.10;5.05;;;4.20;99.90;;;;;;4999070;28;20013;-75
2023/03/12 04:05:57;;;;;;;11.88;5.45;;;4.20;99.90;;;;;;4999275;28;20106;-75
2023/03/12 04:08:23;;;;;;;10.80;5.35;;;4.30;99.90;;;;;;5010424;28;20108;-75
2023/03/12 04:10:48;;;;;;;15.82;5.38;;;4.30;99.90;;;;;;5012038;28;20069;-75
2023/03/12 04:13:14;;;;;;;11.27;6.10;;;4.30;99.90;;;;;;5002554;28;20030;-75
2023/03/12 04:15:49;;;;;;;14.23;5.97;;;4.30;99.90;;;;;;5012353;28;20038;-75
2023/03/12 04:18:15;;;;;;;14.38;6.32;;;4.20;99.90;;;;;;5008891;28;20058;-75
2023/03/12 04:20:43;;;;;;;14.90;6.53;;;4.20;99.90;;;;;;5012819;28;20018;-75
2023/03/12 04:23:09;;;;;;;13.07;6.57;;;4.20;99.90;;;;;;5001731;28;20077;-75
2023/03/12 04:25:34;;;;;;;16.77;6.72;;;4.20;99.90;;;;;;5012323;28;20010;-75
2023/03/12 04:28:00;;;;;;;17.17;7.63;;;4.10;99.90;;;;;;5001844;28;20026;-75
2023/03/12 04:30:26;;;;;;;12.80;6.55;;;4.00;99.90;;;;;;4992374;28;20493;-75
2023/03/12 04:32:53;;;;;;;14.68;7.32;;;4.00;99.90;;;;;;5011694;28;20072;-75
2023/03/12 04:35:18;;;;;;;18.38;7.38;;;4.00;99.90;;;;;;5000584;28;20417;-75
2023/03/12 04:37:44;;;;;;;16.05;8.27;;;3.90;99.90;;;;;;5010328;28;20018;-75
2023/03/12 04:40:10;;;;;;;17.77;8.40;;;4.00;99.90;;;;;;5012724;28;20034;-75
2023/03/12 04:42:36;;;;;;;18.48;8.05;;;3.90;99.90;;;;;;5010436;28;20030;-75
2023/03/12 04:45:05;;;;;;;18.33;8.18;;;3.90;99.90;;;;;;4992776;28;20015;-75
2023/03/12 04:47:31;;;;;;;19.10;7.68;;;3.90;99.90;;;;;;5006277;28;20485;-75
2023/03/12 04:49:57;;;;;;;14.60;8.30;;;3.90;99.90;;;;;;4999150;28;20026;-75
2023/03/12 04:52:23;;;;;;;16.33;8.57;;;3.90;99.90;;;;;;5010410;28;20149;-76
2023/03/12 04:54:49;;;;;;;21.83;9.60;;;3.90;99.90;;;;;;5007371;28;20058;-75
2023/03/12 04:57:15;;;;;;;15.80;8.80;;;3.90;99.90;;;;;;5002909;28;20030;-75
2023/03/12 04:59:41;;;;;;;18.67;9.30;;;3.90;99.90;;;;;;5012211;28;20032;-75
2023/03/12 05:02:07;;;;;;;20.60;9.32;;;3.90;99.90;;;;;;5012222;28;20030;-75
2023/03/12 05:04:32;;;;;;;19.60;9.55;;;3.90;99.90;;;;;;5010453;28;20394;-75
2023/03/12 05:06:58;;;;;;;23.17;9.63;;;3.90;99.90;;;;;;5005907;28;20101;-76
2023/03/12 05:09:24;;;;;;;19.23;9.93;;;3.90;99.90;;;;;;5006638;28;20380;-75
2023/03/12 05:11:49;;;;;;;19.65;10.10;;;3.90;99.90;;;;;;5010362;28;20069;-75
2023/03/12 05:14:15;;;;;;;20.20;9.77;;;3.90;99.90;;;;;;5010382;28;20030;-75
2023/03/12 05:16:40;;;;;;;17.48;10.80;;;3.90;99.90;;;;;;4999068;28;20034;-75
2023/03/12 05:19:06;;;;;;;19.70;10.10;;;3.90;99.90;;;;;;5011992;28;20054;-75
2023/03/12 05:21:32;;;;;;;22.15;10.75;;;3.90;99.90;;;;;;5012010;28;20128;-75
2023/03/12 05:23:58;;;;;;;17.83;10.32;;;4.00;99.90;;;;;;5012724;28;20110;-75
2023/03/12 05:26:27;;;;;;;20.70;10.52;;;4.00;99.90;;;;;;5013014;28;20021;-75
2023/03/12 05:28:53;;;;;;;22.98;11.38;;;4.00;99.90;;;;;;5008996;28;20026;-75
2023/03/12 05:31:19;;;;;;;21.85;10.70;;;4.00;99.90;;;;;;5015966;28;20049;-75
2023/03/12 05:33:45;;;;;;;20.17;10.55;;;4.00;99.90;;;;;;5003448;28;20026;-75
2023/03/12 05:36:12;;;;;;;21.65;10.45;;;4.00;99.90;;;;;;5011833;28;20038;-75
2023/03/12 05:38:38;;;;;;;21.60;10.98;;;4.00;99.90;;;;;;5008135;28;20033;-76
2023/03/12 05:41:04;;;;;;;22.80;11.75;;;4.00;99.90;;;;;;5012398;28;20105;-75
2023/03/12 05:43:30;;;;;;;17.88;10.80;;;4.00;99.90;;;;;;4996982;28;20130;-75
2023/03/12 05:46:01;;;;;;;23.13;11.40;;;4.00;99.90;;;;;;5011411;28;20053;-75
2023/03/12 05:48:27;;;;;;;26.17;12.13;;;4.00;99.90;;;;;;5015537;28;20058;-75
2023/03/12 05:50:52;;;;;;;22.50;11.63;;;3.90;99.90;;;;;;5015698;28;20025;-76
2023/03/12 05:53:18;;;;;;;18.65;11.32;;;3.90;99.90;;;;;;5014940;28;20028;-75
2023/03/12 05:55:44;;;;;;;23.02;12.05;;;3.90;99.90;;;;;;5015514;28;20056;-75
2023/03/12 05:58:11;;;;;;;28.30;12.55;;;3.90;99.90;;;;;;5010961;28;20076;-75
2023/03/12 06:00:37;;;;;;;22.23;12.50;;;3.90;99.90;;;;;;4995191;28;20381;-76
2023/03/12 06:03:05;;;;;;;22.05;12.13;;;3.90;99.90;;;;;;5010169;28;20075;-76
2023/03/12 06:05:32;;;;;;;23.65;12.98;;;3.90;99.90;;;;;;4994164;28;20046;-76
2023/03/12 06:07:58;;;;;;;20.60;12.48;;;3.90;99.90;;;;;;5008430;28;20105;-76
2023/03/12 06:10:23;;;;;;;20.50;12.73;;;3.90;99.90;;;;;;5001997;28;20110;-76
2023/03/12 06:12:49;;;;;;;22.98;12.60;;;3.90;99.90;;;;;;5014965;28;20746;-76
2023/03/12 06:15:15;;;;;;;22.15;13.13;;;3.90;99.90;;;;;;5001099;28;20591;-76
2023/03/12 06:17:41;;;;;;;23.27;13.45;;;3.90;99.90;;;;;;5004909;28;20034;-76
2023/03/12 06:20:08;;;;;;;25.58;13.52;;;3.90;99.90;;;;;;5006254;28;20030;-76
2023/03/12 06:22:34;;;;;;;25.88;13.88;;;3.90;99.90;;;;;;5014292;28;20061;-74
2023/03/12 06:25:00;;;;;;;23.00;13.60;;;3.90;99.90;;;;;;4999721;28;20057;-76
2023/03/12 06:27:26;;;;;;;25.67;14.52;;;3.90;99.90;;;;;;5013928;28;20026;-76
2023/03/12 06:29:51;;;;;;;20.95;13.70;;;3.90;99.90;;;;;;5014331;28;20022;-75
2023/03/12 06:32:17;;;;;;;21.73;15.15;;;4.00;99.90;;;;;;4982782;28;20401;-75
2023/03/12 06:34:43;;;;;;;22.75;14.75;;;3.90;99.90;;;;;;5014382;28;20493;-75
2023/03/12 06:37:10;;;;;;;25.50;15.20;;;3.90;99.90;;;;;;5001268;28;20077;-74
2023/03/12 06:39:37;;;;;;;24.40;15.23;;;4.00;99.90;;;;;;4994844;28;20037;-75
2023/03/12 06:42:03;;;;;;;28.45;15.77;;;4.00;99.90;;;;;;5006312;28;20042;-75
2023/03/12 06:44:28;;;;;;;26.58;15.73;;;4.00;99.90;;;;;;5010717;28;20431;-75
2023/03/12 06:46:54;;;;;;;26.23;16.67;;;4.00;99.90;;;;;;5004031;28;20105;-75
2023/03/12 06:49:20;;;;;;;25.77;16.02;;;4.10;99.90;;;;;;5012567;28;20146;-75
2023/03/12 06:51:45;;;;;;;23.95;15.60;;;4.00;99.90;;;;;;5002197;28;20022;-75
2023/03/12 06:54:11;;;;;;;26.60;16.65;;;4.00;99.90;;;;;;5002891;28;20029;-75
2023/03/12 06:56:37;;;;;;;31.10;17.98;;;4.10;99.90;;;;;;5013384;28;20025;-75
2023/03/12 06:59:03;;;;;;;27.70;17.67;;;4.10;99.90;;;;;;5004123;28;20031;-75
2023/03/12 07:01:29;;;;;;;33.05;18.40;;;4.10;99.90;;;;;;5009060;28;20022;-75
2023/03/12 07:03:54;;;;;;;29.80;18.05;;;4.10;99.90;;;;;;5003650;28;20022;-75
2023/03/12 07:06:22;;;;;;;33.58;19.27;;;4.20;99.90;;;;;;5012879;28;20054;-75
2023/03/12 07:08:48;;;;;;;31.60;18.88;;;4.20;99.90;;;;;;5012979;28;20037;-75
2023/03/12 07:11:14;;;;;;;30.00;19.38;;;4.20;99.90;;;;;;5013760;28;20057;-75
2023/03/12 07:13:40;;;;;;;34.60;21.27;;;4.20;99.90;;;;;;5011286;28;20026;-75
2023/03/12 07:16:07;;;;;;;37.95;21.70;;;4.20;99.90;;;;;;5002908;28;20509;-75
2023/03/12 07:18:33;;;;;;;43.03;21.85;;;4.30;99.90;;;;;;5002621;28;20029;-75
2023/03/12 07:20:58;;;;;;;45.55;22.83;;;4.30;99.90;;;;;;4979929;28;20026;-75
2023/03/12 07:23:24;;;;;;;37.95;22.20;;;4.30;99.90;;;;;;5005414;28;20084;-75
2023/03/12 07:25:51;;;;;;;39.92;23.25;;;4.30;99.90;;;;;;5013930;28;20033;-75
2023/03/12 07:28:17;;;;;;;44.97;23.75;;;4.40;99.90;;;;;;5001445;28;20019;-75
2023/03/12 07:30:49;;;;;;;47.05;25.15;;;4.40;99.90;;;;;;5008138;28;20033;-75
2023/03/12 07:33:16;;;;;;;45.45;24.63;;;4.40;99.90;;;;;;5013756;28;20449;-76
2023/03/12 07:35:41;;;;;;;48.38;25.48;;;4.40;99.90;;;;;;5013751;28;20026;-76
2023/03/12 07:38:07;;;;;;;47.45;25.63;;;4.50;99.90;;;;;;5010374;28;20032;-75
2023/03/12 07:40:34;;;;;;;43.92;25.08;;;4.50;99.90;;;;;;5000492;28;20098;-76
2023/03/12 07:43:00;;;;;;;50.35;27.67;;;4.50;99.90;;;;;;4998306;28;20431;-76
2023/03/12 07:45:26;;;;;;;56.33;28.33;;;4.60;99.90;;;;;;5001430;28;19998;-76
2023/03/12 07:47:52;;;;;;;63.55;31.30;;;4.60;99.90;;;;;;5008470;28;20053;-76
2023/03/12 07:50:17;;;;;;;67.82;31.67;;;4.70;99.90;;;;;;4996190;28;20053;-76
2023/03/12 07:52:44;;;;;;;70.38;33.40;;;4.70;99.90;;;;;;5010939;28;20033;-76
2023/03/12 07:55:10;;;;;;;72.60;34.88;;;4.80;99.90;;;;;;4996892;28;20037;-76
2023/03/12 07:57:36;;;;;;;77.60;35.55;;;4.90;99.90;;;;;;5006870;28;20022;-75
2023/03/12 08:00:06;;;;;;;73.00;35.20;;;5.00;99.90;;;;;;5009114;28;20398;-76
2023/03/12 08:02:32;;;;;;;75.95;35.83;;;5.10;99.90;;;;;;4994194;28;20080;-76
2023/03/12 08:04:57;;;;;;;80.15;35.95;;;5.20;99.90;;;;;;5006131;28;20374;-76
2023/03/12 08:07:23;;;;;;;87.60;35.67;;;5.30;99.90;;;;;;5007600;28;20026;-75
2023/03/12 08:09:48;;;;;;;95.25;39.25;;;5.40;99.90;;;;;;5008896;28;20395;-76
2023/03/12 08:12:14;;;;;;;96.93;40.05;;;5.50;99.90;;;;;;5004252;28;20037;-75
2023/03/12 08:14:39;;;;;;;88.50;39.58;;;5.50;99.90;;;;;;5010900;28;20053;-75
2023/03/12 08:17:05;;;;;;;88.65;37.85;;;5.60;99.90;;;;;;5012603;28;20113;-75
2023/03/12 08:19:31;;;;;;;85.85;37.28;;;5.70;99.90;;;;;;5005662;28;20434;-75
2023/03/12 08:21:56;;;;;;;90.53;37.42;;;5.70;99.90;;;;;;5012377;28;20034;-75
2023/03/12 08:24:22;;;;;;;90.97;37.80;;;5.80;99.90;;;;;;5013086;28;20505;-75
2023/03/12 08:26:48;;;;;;;92.32;38.65;;;5.90;99.90;;;;;;5012636;28;20424;-75
2023/03/12 08:29:15;;;;;;;87.18;38.75;;;5.90;99.90;;;;;;5013090;28;20026;-75
2023/03/12 08:31:41;;;;;;;90.25;39.00;;;5.90;99.90;;;;;;5012373;28;20064;-75
2023/03/12 08:34:06;;;;;;;97.75;39.58;;;6.00;99.90;;;;;;5010341;28;20077;-75
2023/03/12 08:36:32;;;;;;;88.65;37.20;;;6.10;99.90;;;;;;5001384;28;20018;-75
2023/03/12 08:38:57;;;;;;;89.75;39.35;;;6.10;99.90;;;;;;5005645;28;20176;-74
2023/03/12 08:41:23;;;;;;;85.10;35.95;;;6.10;99.90;;;;;;5012379;28;20025;-75
2023/03/12 08:43:49;;;;;;;84.35;36.88;;;6.20;99.90;;;;;;5000601;28;20500;-75
2023/03/12 08:46:14;;;;;;;79.13;35.00;;;6.20;99.90;;;;;;5010057;28;20014;-75
2023/03/12 08:48:40;;;;;;;84.63;36.42;;;6.30;99.90;;;;;;5012696;28;20049;-74
2023/03/12 08:51:06;;;;;;;84.25;35.17;;;6.40;99.90;;;;;;5002214;28;20026;-75
2023/03/12 08:53:34;;;;;;;79.70;34.53;;;6.40;99.90;;;;;;5006225;28;20076;-74
2023/03/12 08:56:01;;;;;;;80.18;34.58;;;6.50;99.90;;;;;;5006222;28;20018;-75
2023/03/12 08:58:27;;;;;;;78.85;34.13;;;6.60;99.90;;;;;;5012369;28;20034;-75
2023/03/12 09:00:53;;;;;;;78.60;32.10;;;6.70;99.90;;;;;;5014304;28;20018;-75
2023/03/12 09:03:20;;;;;;;79.68;31.23;;;6.80;99.90;;;;;;5003510;28;20377;-76
2023/03/12 09:05:47;;;;;;;73.13;28.50;;;6.90;99.90;;;;;;5007556;28;20050;-75
2023/03/12 09:08:13;;;;;;;71.40;25.67;;;7.00;99.90;;;;;;5010842;28;20026;-74
2023/03/12 09:10:40;;;;;;;73.25;21.58;;;7.10;99.90;;;;;;4992225;28;20030;-75
2023/03/12 09:13:08;;;;;;;56.45;18.08;;;7.30;99.90;;;;;;4997930;28;20097;-74
2023/03/12 09:15:33;;;;;;;56.72;15.65;;;7.50;99.90;;;;;;5011114;28;20025;-74
2023/03/12 09:17:59;;;;;;;53.22;13.43;;;7.70;99.90;;;;;;5014790;28;20401;-74
2023/03/12 09:20:25;;;;;;;55.78;13.95;;;7.80;99.90;;;;;;5015132;28;20061;-74
2023/03/12 09:22:51;;;;;;;56.70;12.80;;;8.00;99.90;;;;;;5015213;28;20477;-74
2023/03/12 09:25:17;;;;;;;59.60;13.00;;;8.10;99.90;;;;;;5009908;28;20093;-74
2023/03/12 09:27:46;;;;;;;46.38;11.25;;;8.20;99.90;;;;;;5015720;28;20076;-74
2023/03/12 09:30:15;;;;;;;52.38;11.52;;;8.30;99.90;;;;;;5008871;28;20508;-75
2023/03/12 09:32:41;;;;;;;56.38;11.40;;;8.40;99.90;;;;;;5009539;28;20024;-75
2023/03/12 09:35:07;;;;;;;61.42;12.13;;;8.40;99.90;;;;;;5009072;28;20528;-75
2023/03/12 09:37:33;;;;;;;50.28;11.40;;;8.50;99.90;;;;;;5010323;28;20540;-76
2023/03/12 09:40:00;;;;;;;55.75;9.93;;;8.60;99.90;;;;;;5004671;28;20023;-75
2023/03/12 09:42:42;;;;;;;49.08;9.95;;;8.60;99.90;;;;;;5010030;28;20592;-75
2023/03/12 09:45:15;;;;;;;48.97;10.73;;;8.70;99.90;;;;;;5006397;28;20030;-75
2023/03/12 09:48:05;;;;;;;51.28;10.02;;;8.70;99.90;;;;;;5004880;28;20049;-75
2023/03/12 09:50:38;;;;;;;49.05;9.02;;;8.80;99.90;;;;;;5013248;28;20048;-74
2023/03/12 09:53:12;;;;;;;48.28;9.02;;;8.90;99.90;;;;;;5012717;28;20072;-74
2023/03/12 09:55:41;;;;;;;42.55;8.68;;;8.90;99.90;;;;;;5015261;28;20448;-74
2023/03/12 09:58:33;;;;;;;41.58;8.05;;;9.00;99.90;;;;;;5004081;28;20098;-74
2023/03/12 10:01:08;;;;;;;45.22;8.80;;;9.00;99.90;;;;;;4988695;28;20050;-74
2023/03/12 10:03:54;;;;;;;45.10;8.63;;;9.10;99.90;;;;;;5003086;28;20614;-74
2023/03/12 10:06:26;;;;;;;51.95;8.82;;;9.10;99.90;;;;;;5002153;28;20035;-74
2023/03/12 10:09:24;;;;;;;44.28;7.97;;;9.20;99.90;;;;;;5008178;28;20413;-75
2023/03/12 10:12:09;;;;;;;43.05;8.18;;;9.20;99.90;;;;;;5013945;28;20156;-74
2023/03/12 10:14:47;;;;;;;52.13;8.63;;;9.20;99.90;;;;;;4997289;28;20084;-74
2023/03/12 10:17:25;;;;;;;51.35;8.40;;;9.30;99.90;;;;;;5011733;28;20084;-74
2023/03/12 10:19:54;;;;;;;43.88;7.82;;;9.30;99.90;;;;;;5001273;28;20478;-74
2023/03/12 10:22:42;;;;;;;46.65;8.13;;;9.30;99.90;;;;;;5012770;28;20033;-74
2023/03/12 10:25:26;;;;;;;58.08;8.38;;;9.40;99.90;;;;;;5014319;28;20021;-74
2023/03/12 10:27:52;;;;;;;46.03;7.30;;;9.50;99.90;;;;;;4996984;28;20023;-73
2023/03/12 10:30:24;;;;;;;47.08;7.15;;;9.50;99.90;;;;;;5011822;28;20025;-73
2023/03/12 10:32:56;;;;;;;50.08;6.88;;;9.50;99.90;;;;;;5006889;28;20018;-74
2023/03/12 10:35:24;;;;;;;48.17;6.78;;;9.60;99.90;;;;;;4999910;28;20068;-75
2023/03/12 10:37:58;;;;;;;39.00;6.22;;;9.60;99.90;;;;;;5003995;28;20548;-74
2023/03/12 10:40:30;;;;;;;44.20;7.17;;;9.50;99.90;;;;;;5001973;28;20026;-74
2023/03/12 10:42:56;;;;;;;43.08;6.70;;;9.60;99.90;;;;;;5000027;28;20018;-74
2023/03/12 10:45:49;;;;;;;46.00;7.00;;;9.60;99.90;;;;;;5002352;28;20034;-74
2023/03/12 10:48:24;;;;;;;47.13;6.72;;;9.50;99.90;;;;;;4995031;28;20053;-75
2023/03/12 10:51:19;;;;;;;45.17;6.38;;;9.60;99.90;;;;;;5000866;28;20536;-74
2023/03/12 10:53:46;;;;;;;49.47;6.00;;;9.60;99.90;;;;;;4991329;28;20155;-74
2023/03/12 10:56:13;;;;;;;47.95;6.97;;;9.60;99.90;;;;;;5006693;28;20018;-74
2023/03/12 10:58:48;;;;;;;39.83;6.63;;;9.50;99.90;;;;;;5005081;28;20389;-74
2023/03/12 11:01:13;;;;;;;54.05;7.28;;;9.50;99.90;;;;;;4996598;28;20062;-75
2023/03/12 11:03:39;;;;;;;53.88;7.50;;;9.50;99.90;;;;;;5010986;28;20393;-74
2023/03/12 11:06:10;;;;;;;45.10;7.25;;;9.50;99.90;;;;;;5012155;28;20487;-74
2023/03/12 11:08:36;;;;;;;43.25;6.68;;;9.60;99.90;;;;;;5001099;28;20050;-73
2023/03/12 11:11:04;;;;;;;48.65;6.38;;;9.60;99.90;;;;;;5000831;28;20045;-74
2023/03/12 11:13:40;;;;;;;51.90;6.97;;;9.60;99.90;;;;;;4999389;28;20030;-73
2023/03/12 11:16:15;;;;;;;42.95;7.18;;;9.70;99.90;;;;;;4998602;28;20499;-73
2023/03/12 11:18:55;;;;;;;37.63;6.00;;;9.70;99.90;;;;;;5008097;28;20492;-73
2023/03/12 11:21:21;;;;;;;39.55;5.90;;;9.80;99.90;;;;;;4996174;28;20034;-73
2023/03/12 11:23:56;;;;;;;61.90;7.60;;;9.80;99.90;;;;;;5007935;28;20644;-73
2023/03/12 11:26:38;;;;;;;43.13;6.78;;;9.90;99.90;;;;;;4995047;28;20033;-73
2023/03/12 11:29:25;;;;;;;46.25;6.93;;;9.90;99.90;;;;;;4999971;28;20466;-72
2023/03/12 11:31:57;;;;;;;51.72;7.45;;;10.00;99.90;;;;;;5002018;28;20038;-73
2023/03/12 11:34:36;;;;;;;48.97;7.35;;;10.00;99.90;;;;;;5008826;28;20108;-73
2023/03/12 11:37:34;;;;;;;45.90;7.05;;;10.10;99.90;;;;;;5013421;28;20080;-73
2023/03/12 11:40:37;;;;;;;44.50;7.05;;;10.10;99.90;;;;;;4983021;28;20050;-73
2023/03/12 11:43:06;;;;;;;52.22;7.65;;;10.10;99.90;;;;;;4998821;28;20030;-73
2023/03/12 11:45:37;;;;;;;42.90;6.38;;;10.20;99.90;;;;;;5001260;28;20037;-73
2023/03/12 11:48:17;;;;;;;50.80;7.30;;;10.20;99.90;;;;;;5011862;28;20121;-73
2023/03/12 11:51:02;;;;;;;47.58;6.95;;;10.30;99.90;;;;;;5009101;28;20022;-73
2023/03/12 11:53:51;;;;;;;42.53;7.05;;;10.30;99.90;;;;;;5004738;28;20058;-73
2023/03/12 11:56:29;;;;;;;59.95;8.18;;;10.40;99.90;;;;;;5007701;28;20029;-73
2023/03/12 11:59:29;;;;;;;42.65;7.20;;;10.40;99.90;;;;;;4992681;28;20486;-73
2023/03/12 12:02:22;;;;;;;62.50;7.40;;;10.50;99.90;;;;;;4947034;29;20540;-73
2023/03/12 12:04:59;;;;;;;45.80;6.40;;;10.50;99.90;;;;;;4950894;29;20043;-73
2023/03/12 12:07:47;;;;;;;51.00;7.15;;;10.60;99.90;;;;;;4948783;29;20031;-73
2023/03/12 12:10:18;;;;;;;45.92;7.03;;;10.70;99.90;;;;;;4949354;29;20410;-74
2023/03/12 12:12:52;;;;;;;51.00;7.10;;;10.70;99.90;;;;;;4950963;29;20423;-74
2023/03/12 12:15:33;;;;;;;44.03;7.65;;;10.80;99.90;;;;;;4951642;29;20177;-74
2023/03/12 12:18:22;;;;;;;50.63;7.50;;;10.90;99.90;;;;;;4951428;29;20036;-74
2023/03/12 12:21:23;;;;;;;55.42;7.38;;;11.00;99.90;;;;;;4951372;29;20039;-74
2023/03/12 12:23:57;;;;;;;53.13;7.82;;;11.10;99.90;;;;;;4952290;29;20059;-74
2023/03/12 12:26:36;;;;;;;50.03;7.45;;;11.10;99.90;;;;;;4951823;29;20529;-74
2023/03/12 12:29:16;;;;;;;50.45;6.97;;;11.10;99.90;;;;;;4949375;29;20520;-74
2023/03/12 12:31:56;;;;;;;46.42;7.18;;;11.10;99.90;;;;;;4951948;29;20066;-74
2023/03/12 12:34:27;;;;;;;51.13;7.90;;;11.10;99.90;;;;;;4951716;28;20487;-74
2023/03/12 12:37:26;;;;;;;44.00;6.32;;;11.10;99.90;;;;;;4967540;28;20053;-74
2023/03/12 12:40:07;;;;;;;41.63;6.95;;;11.20;99.90;;;;;;5011521;28;20030;-73
2023/03/12 12:42:40;;;;;;;46.95;7.35;;;11.20;99.90;;;;;;4998706;28;20093;-74
2023/03/12 12:45:10;;;;;;;43.67;6.65;;;11.10;99.90;;;;;;5003145;28;20061;-74
2023/03/12 12:47:43;;;;;;;37.08;6.93;;;11.10;99.90;;;;;;4997887;28;20031;-74
2023/03/12 12:50:17;;;;;;;43.13;6.50;;;11.20;99.90;;;;;;4999282;28;20065;-74
2023/03/12 12:52:44;;;;;;;43.88;7.03;;;11.20;99.90;;;;;;4998760;28;20457;-74
2023/03/12 12:55:20;;;;;;;43.67;6.47;;;11.20;99.90;;;;;;4994745;28;20022;-74